Time,TemperatureF,DewpointF,PressureIn,WindDirection,WindDirectionDegrees,WindSpeedMPH,WindSpeedGustMPH,Humidity,HourlyPrecipIn,Conditions,Clouds,dailyrainin,SoftwareType,DateUTC
2013-04-30 00:01:00,32.9,18.5,30.00,East,80,0.0,3.6,55,0.00,,---,0.00,VWS V14.01,2013-04-30 06:01:00,
2013-04-30 00:06:00,32.9,17.2,30.00,NW,309,2.7,4.9,52,0.00,,---,0.00,VWS V14.01,2013-04-30 06:06:00,
2013-04-30 00:11:00,33.3,17.1,30.00,North,0,0.0,4.9,51,0.00,,---,0.00,VWS V14.01,2013-04-30 06:11:00,
2013-04-30 00:16:00,33.3,17.1,30.00,East,83,5.4,5.4,51,0.00,,---,0.00,VWS V14.01,2013-04-30 06:16:00,
2013-04-30 00:21:00,33.6,16.0,30.00,SE,146,4.0,5.4,48,0.00,,---,0.00,VWS V14.01,2013-04-30 06:21:00,
2013-04-30 00:26:00,34.0,15.4,30.00,ESE,102,7.6,7.6,46,0.00,,---,0.00,VWS V14.01,2013-04-30 06:26:00,
2013-04-30 00:31:00,34.5,14.9,30.00,SSE,161,5.4,6.3,44,0.00,,---,0.00,VWS V14.01,2013-04-30 06:31:00,
2013-04-30 00:36:00,34.9,14.1,30.00,SE,132,3.1,7.6,42,0.00,,---,0.00,VWS V14.01,2013-04-30 06:36:00,
2013-04-30 00:41:00,35.6,13.1,30.00,South,186,6.3,8.3,39,0.00,,---,0.00,VWS V14.01,2013-04-30 06:41:00,
2013-04-30 00:46:00,35.8,11.4,30.00,South,186,5.8,6.3,36,0.00,,---,0.00,VWS V14.01,2013-04-30 06:46:00,
2013-04-30 00:51:00,36.3,10.6,30.00,SSW,200,5.8,10.5,34,0.00,,---,0.00,VWS V14.01,2013-04-30 06:51:00,
2013-04-30 00:56:00,36.3,10.6,30.00,SSW,193,5.4,10.5,34,0.00,,---,0.00,VWS V14.01,2013-04-30 06:56:00,
2013-04-30 01:01:00,36.1,10.5,30.00,SSE,149,3.6,4.9,34,0.00,,---,0.00,VWS V14.01,2013-04-30 07:01:00,
2013-04-30 01:06:00,36.1,10.5,30.00,SE,142,5.8,5.8,34,0.00,,---,0.00,VWS V14.01,2013-04-30 07:06:00,
2013-04-30 01:11:00,36.3,10.0,30.00,SSW,206,5.8,5.8,33,0.00,,---,0.00,VWS V14.01,2013-04-30 07:11:00,
2013-04-30 01:16:00,36.5,10.1,30.00,West,261,7.6,7.6,33,0.00,,---,0.00,VWS V14.01,2013-04-30 07:16:00,
2013-04-30 01:21:00,36.9,9.8,30.00,SW,221,6.3,11.0,32,0.00,,---,0.00,VWS V14.01,2013-04-30 07:21:00,
2013-04-30 01:26:00,37.0,9.9,30.00,West,275,2.7,11.0,32,0.00,,---,0.00,VWS V14.01,2013-04-30 07:26:00,
2013-04-30 01:31:00,37.0,9.2,30.03,SW,225,4.9,5.8,31,0.00,,---,0.00,VWS V14.01,2013-04-30 07:31:00,
2013-04-30 01:36:00,36.9,9.1,30.03,WSW,240,12.3,12.3,31,0.00,,---,0.00,VWS V14.01,2013-04-30 07:36:00,
2013-04-30 01:41:00,36.9,9.1,30.03,WSW,253,5.4,12.3,31,0.00,,---,0.00,VWS V14.01,2013-04-30 07:41:00,
2013-04-30 01:46:00,36.5,9.5,30.03,SW,235,7.6,8.1,32,0.00,,---,0.00,VWS V14.01,2013-04-30 07:46:00,
2013-04-30 01:51:00,36.3,9.3,30.03,WSW,248,6.3,9.2,32,0.00,,---,0.00,VWS V14.01,2013-04-30 07:51:00,
2013-04-30 01:56:00,36.5,8.8,30.03,WNW,288,0.0,9.2,31,0.00,,---,0.00,VWS V14.01,2013-04-30 07:56:00,
2013-04-30 02:01:00,36.1,8.4,30.03,SW,227,2.7,2.7,31,0.00,,---,0.00,VWS V14.01,2013-04-30 08:01:00,
2013-04-30 02:06:00,35.2,7.7,30.03,NW,324,0.0,3.6,31,0.00,,---,0.00,VWS V14.01,2013-04-30 08:06:00,
2013-04-30 02:11:00,34.9,7.3,30.03,WSW,243,2.7,4.0,31,0.00,,---,0.00,VWS V14.01,2013-04-30 08:11:00,
2013-04-30 02:16:00,34.3,6.9,30.03,ESE,102,0.0,3.1,31,0.00,,---,0.00,VWS V14.01,2013-04-30 08:16:00,
2013-04-30 02:21:00,33.4,6.8,30.03,ESE,102,0.0,3.1,32,0.00,,---,0.00,VWS V14.01,2013-04-30 08:21:00,
2013-04-30 02:26:00,32.9,6.3,30.03,East,95,3.1,3.6,32,0.00,,---,0.00,VWS V14.01,2013-04-30 08:26:00,
2013-04-30 02:31:00,32.5,6.0,30.00,ESE,108,2.2,2.7,32,0.00,,---,0.00,VWS V14.01,2013-04-30 08:31:00,
2013-04-30 02:36:00,32.2,6.3,30.00,ESE,114,0.0,4.0,33,0.00,,---,0.00,VWS V14.01,2013-04-30 08:36:00,
2013-04-30 02:41:00,32.4,6.5,30.00,ENE,76,0.0,4.0,33,0.00,,---,0.00,VWS V14.01,2013-04-30 08:41:00,
2013-04-30 02:46:00,32.2,7.0,30.03,SSE,150,0.0,0.0,34,0.00,,---,0.00,VWS V14.01,2013-04-30 08:46:00,
2013-04-30 02:51:00,32.0,6.8,30.03,South,169,0.0,3.6,34,0.00,,---,0.00,VWS V14.01,2013-04-30 08:51:00,
2013-04-30 02:56:00,31.5,7.6,30.03,East,94,5.4,5.4,36,0.00,,---,0.00,VWS V14.01,2013-04-30 08:56:00,
2013-04-30 03:01:00,31.8,7.9,30.00,South,175,4.0,4.0,36,0.00,,---,0.00,VWS V14.01,2013-04-30 09:01:00,
2013-04-30 03:06:00,32.2,8.2,30.00,SW,220,2.7,4.0,36,0.00,,---,0.00,VWS V14.01,2013-04-30 09:06:00,
2013-04-30 03:11:00,32.0,8.7,30.00,East,100,0.0,4.0,37,0.00,,---,0.00,VWS V14.01,2013-04-30 09:11:00,
2013-04-30 03:16:00,31.8,8.5,30.03,ESE,120,3.1,3.1,37,0.00,,---,0.00,VWS V14.01,2013-04-30 09:16:00,
2013-04-30 03:21:00,31.8,8.5,30.03,ESE,104,0.0,3.1,37,0.00,,---,0.00,VWS V14.01,2013-04-30 09:21:00,
2013-04-30 03:26:00,31.3,8.6,30.03,ESE,104,0.0,3.1,38,0.00,,---,0.00,VWS V14.01,2013-04-30 09:26:00,
2013-04-30 03:31:00,30.9,8.3,30.03,WSW,241,0.0,0.0,38,0.00,,---,0.00,VWS V14.01,2013-04-30 09:31:00,
2013-04-30 03:36:00,31.1,9.1,30.03,East,89,3.1,5.4,39,0.00,,---,0.00,VWS V14.01,2013-04-30 09:36:00,
2013-04-30 03:41:00,32.2,8.2,30.03,South,175,3.6,5.8,36,0.00,,---,0.00,VWS V14.01,2013-04-30 09:41:00,
2013-04-30 03:46:00,33.4,7.4,30.03,ENE,57,3.1,6.3,33,0.00,,---,0.00,VWS V14.01,2013-04-30 09:46:00,
2013-04-30 03:51:00,33.6,7.6,30.03,NW,312,0.0,6.3,33,0.00,,---,0.00,VWS V14.01,2013-04-30 09:51:00,
2013-04-30 03:56:00,32.9,7.0,30.03,West,264,0.0,6.3,33,0.00,,---,0.00,VWS V14.01,2013-04-30 09:56:00,
2013-04-30 04:01:00,32.5,6.6,30.03,NW,304,0.0,0.0,33,0.00,,---,0.00,VWS V14.01,2013-04-30 10:01:00,
2013-04-30 04:06:00,31.1,5.4,30.03,NW,304,0.0,0.0,33,0.00,,---,0.00,VWS V14.01,2013-04-30 10:06:00,
2013-04-30 04:11:00,30.0,5.7,30.03,West,276,0.0,0.0,35,0.00,,---,0.00,VWS V14.01,2013-04-30 10:11:00,
2013-04-30 04:16:00,29.1,4.9,30.03,SSW,213,3.6,3.6,35,0.00,,---,0.00,VWS V14.01,2013-04-30 10:16:00,
2013-04-30 04:21:00,29.1,5.5,30.03,SSW,194,2.7,3.6,36,0.00,,---,0.00,VWS V14.01,2013-04-30 10:21:00,
2013-04-30 04:26:00,28.6,6.2,30.03,SSE,168,2.7,3.6,38,0.00,,---,0.00,VWS V14.01,2013-04-30 10:26:00,
2013-04-30 04:31:00,27.7,6.5,30.03,South,183,0.0,0.0,40,0.00,,---,0.00,VWS V14.01,2013-04-30 10:31:00,
2013-04-30 04:36:00,27.5,6.9,30.03,SE,132,0.0,3.6,41,0.00,,---,0.00,VWS V14.01,2013-04-30 10:36:00,
2013-04-30 04:41:00,28.4,7.7,30.03,East,96,0.0,3.6,41,0.00,,---,0.00,VWS V14.01,2013-04-30 10:41:00,
2013-04-30 04:46:00,28.6,7.3,30.03,South,170,0.0,0.0,40,0.00,,---,0.00,VWS V14.01,2013-04-30 10:46:00,
2013-04-30 04:51:00,29.3,8.0,30.03,SE,140,2.7,3.6,40,0.00,,---,0.00,VWS V14.01,2013-04-30 10:51:00,
2013-04-30 04:56:00,29.5,7.6,30.03,SW,229,0.0,3.6,39,0.00,,---,0.00,VWS V14.01,2013-04-30 10:56:00,
2013-04-30 05:01:00,28.8,7.5,30.03,WSW,240,0.0,0.0,40,0.00,,---,0.00,VWS V14.01,2013-04-30 11:01:00,
2013-04-30 05:06:00,27.9,7.2,30.03,WSW,247,0.0,0.0,41,0.00,,---,0.00,VWS V14.01,2013-04-30 11:06:00,
2013-04-30 05:11:00,27.5,6.9,30.03,WSW,254,0.0,2.2,41,0.00,,---,0.00,VWS V14.01,2013-04-30 11:11:00,
2013-04-30 05:16:00,27.3,6.7,30.03,SSE,167,2.7,2.7,41,0.00,,---,0.00,VWS V14.01,2013-04-30 11:16:00,
2013-04-30 05:21:00,27.0,6.9,30.03,West,267,0.0,2.7,42,0.00,,---,0.00,VWS V14.01,2013-04-30 11:21:00,
2013-04-30 05:26:00,27.0,6.9,30.03,SSE,162,4.0,4.0,42,0.00,,---,0.00,VWS V14.01,2013-04-30 11:26:00,
2013-04-30 05:31:00,28.0,7.9,30.06,South,170,0.0,0.0,42,0.00,,---,0.00,VWS V14.01,2013-04-30 11:31:00,
2013-04-30 05:36:00,28.6,7.9,30.06,WNW,288,3.1,3.1,41,0.00,,---,0.00,VWS V14.01,2013-04-30 11:36:00,
2013-04-30 05:41:00,27.9,7.2,30.06,West,265,0.0,3.6,41,0.00,,---,0.00,VWS V14.01,2013-04-30 11:41:00,
2013-04-30 05:46:00,27.5,6.9,30.03,SW,233,3.6,3.6,41,0.00,,---,0.00,VWS V14.01,2013-04-30 11:46:00,
2013-04-30 05:51:00,27.7,7.1,30.03,SSW,199,0.0,3.6,41,0.00,,---,0.00,VWS V14.01,2013-04-30 11:51:00,
2013-04-30 05:56:00,27.3,6.7,30.03,SSW,199,0.0,3.6,41,0.00,,---,0.00,VWS V14.01,2013-04-30 11:56:00,
2013-04-30 06:01:00,26.1,6.6,30.06,WSW,253,0.0,0.0,43,0.00,,---,0.00,VWS V14.01,2013-04-30 12:01:00,
2013-04-30 06:06:00,25.5,6.2,30.06,WSW,253,0.0,0.0,43,0.00,,---,0.00,VWS V14.01,2013-04-30 12:06:00,
2013-04-30 06:11:00,25.2,5.8,30.06,WSW,253,0.0,0.0,43,0.00,,---,0.00,VWS V14.01,2013-04-30 12:11:00,
2013-04-30 06:16:00,24.6,5.3,30.06,WSW,237,0.0,2.2,43,0.00,,---,0.00,VWS V14.01,2013-04-30 12:16:00,
2013-04-30 06:21:00,24.4,5.7,30.06,SSW,210,0.0,2.2,44,0.00,,---,0.00,VWS V14.01,2013-04-30 12:21:00,
2013-04-30 06:26:00,24.4,5.7,30.06,WSW,239,0.0,2.2,44,0.00,,---,0.00,VWS V14.01,2013-04-30 12:26:00,
2013-04-30 06:31:00,24.4,5.7,30.06,South,173,0.0,0.0,44,0.00,,---,0.00,VWS V14.01,2013-04-30 12:31:00,
2013-04-30 06:36:00,24.4,6.2,30.06,South,178,0.0,0.0,45,0.00,,---,0.00,VWS V14.01,2013-04-30 12:36:00,
2013-04-30 06:41:00,24.4,6.2,30.06,South,171,0.0,0.0,45,0.00,,---,0.00,VWS V14.01,2013-04-30 12:41:00,
2013-04-30 06:46:00,24.6,6.8,30.06,South,178,0.0,0.0,46,0.00,,---,0.00,VWS V14.01,2013-04-30 12:46:00,
2013-04-30 06:51:00,25.2,6.8,30.06,WSW,256,0.0,3.1,45,0.00,,---,0.00,VWS V14.01,2013-04-30 12:51:00,
2013-04-30 06:56:00,25.5,7.6,30.06,WSW,245,0.0,3.1,46,0.00,,---,0.00,VWS V14.01,2013-04-30 12:56:00,
2013-04-30 07:01:00,26.4,8.5,30.06,WSW,239,0.0,0.0,46,0.00,,---,0.00,VWS V14.01,2013-04-30 13:01:00,
2013-04-30 07:06:00,27.9,9.8,30.06,WSW,239,0.0,0.0,46,0.00,,---,0.00,VWS V14.01,2013-04-30 13:06:00,
2013-04-30 07:11:00,29.5,10.8,30.06,WSW,250,3.6,4.9,45,0.00,,---,0.00,VWS V14.01,2013-04-30 13:11:00,
2013-04-30 07:16:00,30.2,11.4,30.06,SW,235,0.0,2.2,45,0.00,,---,0.00,VWS V14.01,2013-04-30 13:16:00,
2013-04-30 07:21:00,31.5,11.6,30.06,WSW,237,0.0,2.2,43,0.00,,---,0.00,VWS V14.01,2013-04-30 13:21:00,
2013-04-30 07:26:00,32.5,12.5,30.06,West,263,0.0,2.2,43,0.00,,---,0.00,VWS V14.01,2013-04-30 13:26:00,
2013-04-30 07:31:00,34.2,13.5,30.06,West,263,0.0,0.0,42,0.00,,---,0.00,VWS V14.01,2013-04-30 13:31:00,
2013-04-30 07:36:00,35.4,14.6,30.06,West,263,0.0,0.0,42,0.00,,---,0.00,VWS V14.01,2013-04-30 13:36:00,
2013-04-30 07:41:00,36.9,14.2,30.06,North,0,0.0,0.0,39,0.00,,---,0.00,VWS V14.01,2013-04-30 13:41:00,
2013-04-30 07:46:00,36.9,9.8,30.09,North,1,0.0,0.0,32,0.00,,---,0.00,VWS V14.01,2013-04-30 13:46:00,
2013-04-30 07:51:00,37.4,10.9,30.09,East,100,0.0,0.0,33,0.00,,---,0.00,VWS V14.01,2013-04-30 13:51:00,
2013-04-30 07:56:00,37.4,10.9,30.09,East,88,0.0,3.6,33,0.00,,---,0.00,VWS V14.01,2013-04-30 13:56:00,
2013-04-30 08:01:00,38.1,12.2,30.09,East,83,0.0,0.0,34,0.00,,---,0.00,VWS V14.01,2013-04-30 14:01:00,
2013-04-30 08:06:00,39.0,12.4,30.09,ESE,120,2.7,4.0,33,0.00,,---,0.00,VWS V14.01,2013-04-30 14:06:00,
2013-04-30 08:11:00,39.4,12.0,30.09,WSW,238,6.3,6.3,32,0.00,,---,0.00,VWS V14.01,2013-04-30 14:11:00,
2013-04-30 08:16:00,39.2,11.1,30.09,South,186,4.5,4.5,31,0.00,,---,0.00,VWS V14.01,2013-04-30 14:16:00,
2013-04-30 08:21:00,39.0,11.0,30.09,SW,222,2.2,6.3,31,0.00,,---,0.00,VWS V14.01,2013-04-30 14:21:00,
2013-04-30 08:26:00,38.7,10.6,30.09,WSW,243,0.0,6.3,31,0.00,,---,0.00,VWS V14.01,2013-04-30 14:26:00,
2013-04-30 08:31:00,39.7,11.6,30.09,South,188,3.6,3.6,31,0.00,,---,0.00,VWS V14.01,2013-04-30 14:31:00,
2013-04-30 08:36:00,41.2,11.4,30.09,WNW,291,4.0,4.0,29,0.00,,---,0.00,VWS V14.01,2013-04-30 14:36:00,
2013-04-30 08:41:00,42.6,12.6,30.09,WSW,247,2.7,5.8,29,0.00,,---,0.00,VWS V14.01,2013-04-30 14:41:00,
2013-04-30 08:46:00,43.5,12.6,30.09,WNW,294,3.6,5.8,28,0.00,,---,0.00,VWS V14.01,2013-04-30 14:46:00,
2013-04-30 08:51:00,43.7,12.8,30.09,WNW,295,2.7,5.8,28,0.00,,---,0.00,VWS V14.01,2013-04-30 14:51:00,
2013-04-30 08:56:00,42.6,10.1,30.09,NW,312,3.1,5.8,26,0.00,,---,0.00,VWS V14.01,2013-04-30 14:56:00,
2013-04-30 09:01:00,40.1,8.0,30.09,West,279,2.7,3.6,26,0.00,,---,0.00,VWS V14.01,2013-04-30 15:01:00,
2013-04-30 09:06:00,38.5,6.6,30.09,WNW,282,4.5,6.3,26,0.00,,---,0.00,VWS V14.01,2013-04-30 15:06:00,
2013-04-30 09:11:00,37.6,5.8,30.09,NNW,336,3.1,6.3,26,0.00,,---,0.00,VWS V14.01,2013-04-30 15:11:00,
2013-04-30 09:16:00,38.1,8.7,30.09,NW,318,3.6,5.4,29,0.00,,---,0.00,VWS V14.01,2013-04-30 15:16:00,
2013-04-30 09:21:00,39.6,9.2,30.09,WNW,286,5.8,8.7,28,0.00,,---,0.00,VWS V14.01,2013-04-30 15:21:00,
2013-04-30 09:26:00,38.5,9.0,30.09,WNW,302,5.8,8.7,29,0.00,,---,0.00,VWS V14.01,2013-04-30 15:26:00,
2013-04-30 09:31:00,37.4,8.1,30.09,West,272,2.7,5.8,29,0.00,,---,0.00,VWS V14.01,2013-04-30 15:31:00,
2013-04-30 09:36:00,37.4,8.1,30.09,NW,312,3.1,5.8,29,0.00,,---,0.00,VWS V14.01,2013-04-30 15:36:00,
2013-04-30 09:41:00,37.9,8.5,30.09,South,174,0.0,5.8,29,0.00,,---,0.00,VWS V14.01,2013-04-30 15:41:00,
2013-04-30 09:46:00,39.7,9.3,30.09,SE,126,0.0,0.0,28,0.00,,---,0.00,VWS V14.01,2013-04-30 15:46:00,
2013-04-30 09:51:00,42.4,11.7,30.09,NNW,328,3.1,6.3,28,0.00,,---,0.00,VWS V14.01,2013-04-30 15:51:00,
2013-04-30 09:56:00,41.5,9.2,30.09,NW,326,3.6,6.3,26,0.00,,---,0.00,VWS V14.01,2013-04-30 15:56:00,
2013-04-30 10:01:00,40.6,10.1,30.09,WSW,258,4.0,4.0,28,0.00,,---,0.00,VWS V14.01,2013-04-30 16:01:00,
2013-04-30 10:06:00,42.4,11.7,30.09,WNW,290,2.7,5.8,28,0.00,,---,0.00,VWS V14.01,2013-04-30 16:06:00,
2013-04-30 10:11:00,43.3,9.9,30.09,WNW,298,3.1,8.1,25,0.00,,---,0.00,VWS V14.01,2013-04-30 16:11:00,
2013-04-30 10:16:00,44.2,10.7,30.09,NW,306,3.6,4.9,25,0.00,,---,0.00,VWS V14.01,2013-04-30 16:16:00,
2013-04-30 10:21:00,45.9,12.0,30.09,WSW,239,4.0,6.3,25,0.00,,---,0.00,VWS V14.01,2013-04-30 16:21:00,
2013-04-30 10:26:00,45.0,11.3,30.09,NW,318,5.4,6.3,25,0.00,,---,0.00,VWS V14.01,2013-04-30 16:26:00,
2013-04-30 10:31:00,43.7,8.3,30.09,WSW,258,8.3,8.3,23,0.00,,---,0.00,VWS V14.01,2013-04-30 16:31:00,
2013-04-30 10:36:00,43.3,8.0,30.09,WSW,244,4.0,8.3,23,0.00,,---,0.00,VWS V14.01,2013-04-30 16:36:00,
2013-04-30 10:41:00,44.1,10.5,30.09,WNW,291,3.6,8.7,25,0.00,,---,0.00,VWS V14.01,2013-04-30 16:41:00,
2013-04-30 10:46:00,45.7,11.9,30.09,East,89,2.7,5.4,25,0.00,,---,0.00,VWS V14.01,2013-04-30 16:46:00,
2013-04-30 10:51:00,44.2,8.8,30.09,WNW,300,6.3,8.1,23,0.00,,---,0.00,VWS V14.01,2013-04-30 16:51:00,
2013-04-30 10:56:00,42.3,7.1,30.09,NW,307,4.9,10.5,23,0.00,,---,0.00,VWS V14.01,2013-04-30 16:56:00,
2013-04-30 11:01:00,40.6,5.8,30.09,NW,321,4.9,4.9,23,0.00,,---,0.00,VWS V14.01,2013-04-30 17:01:00,
2013-04-30 11:06:00,40.3,5.4,30.09,WSW,252,2.2,6.3,23,0.00,,---,0.00,VWS V14.01,2013-04-30 17:06:00,
2013-04-30 11:11:00,41.7,9.4,30.09,SW,220,5.8,7.6,26,0.00,,---,0.00,VWS V14.01,2013-04-30 17:11:00,
2013-04-30 11:16:00,45.5,11.7,30.09,WNW,291,2.7,5.8,25,0.00,,---,0.00,VWS V14.01,2013-04-30 17:16:00,
2013-04-30 11:21:00,46.9,10.1,30.09,SW,235,2.7,7.6,22,0.00,,---,0.00,VWS V14.01,2013-04-30 17:21:00,
2013-04-30 11:26:00,48.2,10.1,30.09,NW,323,4.5,7.6,21,0.00,,---,0.00,VWS V14.01,2013-04-30 17:26:00,
2013-04-30 11:31:00,47.7,10.7,30.09,North,9,3.6,6.3,22,0.00,,---,0.00,VWS V14.01,2013-04-30 17:31:00,
2013-04-30 11:36:00,48.9,10.7,30.09,ESE,113,4.0,6.3,21,0.00,,---,0.00,VWS V14.01,2013-04-30 17:36:00,
2013-04-30 11:41:00,50.0,11.6,30.09,SE,125,4.0,6.3,21,0.00,,---,0.00,VWS V14.01,2013-04-30 17:41:00,
2013-04-30 11:46:00,50.4,11.9,30.12,North,9,3.6,3.6,21,0.00,,---,0.00,VWS V14.01,2013-04-30 17:46:00,
2013-04-30 11:51:00,48.9,10.7,30.12,NNE,14,4.5,7.6,21,0.00,,---,0.00,VWS V14.01,2013-04-30 17:51:00,
2013-04-30 11:56:00,46.2,9.5,30.12,NE,56,2.2,7.6,22,0.00,,---,0.00,VWS V14.01,2013-04-30 17:56:00,
2013-04-30 12:01:00,44.6,8.1,30.12,North,0,3.1,3.6,22,0.00,,---,0.00,VWS V14.01,2013-04-30 18:01:00,
2013-04-30 12:06:00,44.1,8.6,30.12,ENE,66,5.4,7.2,23,0.00,,---,0.00,VWS V14.01,2013-04-30 18:06:00,
2013-04-30 12:11:00,43.3,8.0,30.12,ENE,75,3.1,7.2,23,0.00,,---,0.00,VWS V14.01,2013-04-30 18:11:00,
2013-04-30 12:16:00,43.3,8.0,30.12,East,89,3.1,3.1,23,0.00,,---,0.00,VWS V14.01,2013-04-30 18:16:00,
2013-04-30 12:21:00,43.5,8.2,30.12,ESE,114,2.2,4.0,23,0.00,,---,0.00,VWS V14.01,2013-04-30 18:21:00,
2013-04-30 12:26:00,43.5,8.2,30.12,SSW,203,3.6,4.0,23,0.00,,---,0.00,VWS V14.01,2013-04-30 18:26:00,
2013-04-30 12:31:00,42.8,7.6,30.12,NW,316,3.1,7.6,23,0.00,,---,0.00,VWS V14.01,2013-04-30 18:31:00,
2013-04-30 12:36:00,42.3,7.1,30.12,NNW,328,5.4,8.3,23,0.00,,---,0.00,VWS V14.01,2013-04-30 18:36:00,
2013-04-30 12:41:00,43.3,8.0,30.12,NNW,345,2.7,8.3,23,0.00,,---,0.00,VWS V14.01,2013-04-30 18:41:00,
2013-04-30 12:46:00,44.1,8.6,30.12,WSW,249,2.2,5.4,23,0.00,,---,0.00,VWS V14.01,2013-04-30 18:46:00,
2013-04-30 12:51:00,44.6,8.1,30.12,WSW,249,2.7,6.3,22,0.00,,---,0.00,VWS V14.01,2013-04-30 18:51:00,
2013-04-30 12:56:00,44.2,8.8,30.12,WNW,287,5.8,8.7,23,0.00,,---,0.00,VWS V14.01,2013-04-30 18:56:00,
2013-04-30 13:01:00,43.2,7.9,30.12,WNW,302,5.4,10.5,23,0.00,,---,0.00,VWS V14.01,2013-04-30 19:01:00,
2013-04-30 13:06:00,42.8,7.6,30.12,NNW,338,4.9,10.5,23,0.00,,---,0.00,VWS V14.01,2013-04-30 19:06:00,
2013-04-30 13:11:00,42.8,7.6,30.12,WSW,245,4.9,10.5,23,0.00,,---,0.00,VWS V14.01,2013-04-30 19:11:00,
2013-04-30 13:16:00,43.5,8.2,30.12,NNW,330,4.9,8.7,23,0.00,,---,0.00,VWS V14.01,2013-04-30 19:16:00,
2013-04-30 13:21:00,44.8,8.3,30.12,WSW,248,4.0,8.7,22,0.00,,---,0.00,VWS V14.01,2013-04-30 19:21:00,
2013-04-30 13:26:00,46.6,9.8,30.12,West,264,2.7,8.7,22,0.00,,---,0.00,VWS V14.01,2013-04-30 19:26:00,
2013-04-30 13:31:00,45.5,8.9,30.12,NNW,343,6.3,6.3,22,0.00,,---,0.00,VWS V14.01,2013-04-30 19:31:00,
2013-04-30 13:36:00,45.9,9.2,30.12,NNW,337,0.0,8.7,22,0.00,,---,0.00,VWS V14.01,2013-04-30 19:36:00,
2013-04-30 13:41:00,45.9,9.2,30.12,NW,325,4.0,8.7,22,0.00,,---,0.00,VWS V14.01,2013-04-30 19:41:00,
2013-04-30 13:46:00,44.6,8.1,30.12,WNW,283,2.7,7.2,22,0.00,,---,0.00,VWS V14.01,2013-04-30 19:46:00,
2013-04-30 13:51:00,43.2,7.9,30.12,WNW,289,5.4,8.1,23,0.00,,---,0.00,VWS V14.01,2013-04-30 19:51:00,
2013-04-30 13:56:00,43.5,10.0,30.12,NW,306,2.7,8.1,25,0.00,,---,0.00,VWS V14.01,2013-04-30 19:56:00,
2013-04-30 14:01:00,47.3,10.4,30.12,WNW,289,5.8,8.3,22,0.00,,---,0.00,VWS V14.01,2013-04-30 20:01:00,
2013-04-30 14:06:00,47.7,10.7,30.12,WSW,249,5.4,10.1,22,0.00,,---,0.00,VWS V14.01,2013-04-30 20:06:00,
2013-04-30 14:11:00,46.8,9.9,30.12,NW,322,3.6,10.1,22,0.00,,---,0.00,VWS V14.01,2013-04-30 20:11:00,
2013-04-30 14:16:00,45.0,8.4,30.12,West,268,3.6,5.4,22,0.00,,---,0.00,VWS V14.01,2013-04-30 20:16:00,
2013-04-30 14:21:00,44.6,8.1,30.12,North,349,4.9,5.8,22,0.00,,---,0.00,VWS V14.01,2013-04-30 20:21:00,
2013-04-30 14:26:00,46.2,9.5,30.12,North,357,3.6,8.7,22,0.00,,---,0.00,VWS V14.01,2013-04-30 20:26:00,
2013-04-30 14:31:00,44.1,8.6,30.12,North,353,3.6,4.9,23,0.00,,---,0.00,VWS V14.01,2013-04-30 20:31:00,
2013-04-30 14:36:00,43.2,7.9,30.12,NNW,337,4.9,8.1,23,0.00,,---,0.00,VWS V14.01,2013-04-30 20:36:00,
2013-04-30 14:41:00,42.4,10.0,30.12,NW,315,4.9,11.0,26,0.00,,---,0.00,VWS V14.01,2013-04-30 20:41:00,
2013-04-30 14:46:00,41.7,9.4,30.15,NNW,338,8.7,8.7,26,0.00,,---,0.00,VWS V14.01,2013-04-30 20:46:00,
2013-04-30 14:51:00,41.5,6.5,30.15,NW,313,7.6,10.5,23,0.00,,---,0.00,VWS V14.01,2013-04-30 20:51:00,
2013-04-30 14:56:00,42.1,9.7,30.15,NW,309,5.8,10.5,26,0.00,,---,0.00,VWS V14.01,2013-04-30 20:56:00,
2013-04-30 15:01:00,42.1,9.7,30.15,NW,318,5.8,5.8,26,0.00,,---,0.00,VWS V14.01,2013-04-30 21:01:00,
2013-04-30 15:06:00,42.3,9.8,30.15,WNW,295,5.4,5.8,26,0.00,,---,0.00,VWS V14.01,2013-04-30 21:06:00,
2013-04-30 15:11:00,43.3,9.9,30.15,NW,309,2.2,5.8,25,0.00,,---,0.00,VWS V14.01,2013-04-30 21:11:00,
2013-04-30 15:16:00,45.9,12.0,30.15,North,353,4.9,4.9,25,0.00,,---,0.00,VWS V14.01,2013-04-30 21:16:00,
2013-04-30 15:21:00,49.5,11.2,30.15,North,357,2.7,5.8,21,0.00,,---,0.00,VWS V14.01,2013-04-30 21:21:00,
2013-04-30 15:26:00,50.2,11.8,30.15,SW,224,4.9,8.7,21,0.00,,---,0.00,VWS V14.01,2013-04-30 21:26:00,
2013-04-30 15:31:00,50.4,11.9,30.15,West,266,3.1,4.9,21,0.00,,---,0.00,VWS V14.01,2013-04-30 21:31:00,
2013-04-30 15:36:00,47.8,7.6,30.15,NE,34,2.7,5.8,19,0.00,,---,0.00,VWS V14.01,2013-04-30 21:36:00,
2013-04-30 15:41:00,46.9,10.1,30.15,North,3,3.1,5.8,22,0.00,,---,0.00,VWS V14.01,2013-04-30 21:41:00,
2013-04-30 15:46:00,45.0,8.4,30.15,NNW,328,3.1,4.9,22,0.00,,---,0.00,VWS V14.01,2013-04-30 21:46:00,
2013-04-30 15:51:00,44.1,8.6,30.15,NNW,339,5.4,5.8,23,0.00,,---,0.00,VWS V14.01,2013-04-30 21:51:00,
2013-04-30 15:56:00,44.2,8.8,30.15,NNW,327,0.0,7.6,23,0.00,,---,0.00,VWS V14.01,2013-04-30 21:56:00,
2013-04-30 16:01:00,44.4,8.9,30.15,North,7,4.9,4.9,23,0.00,,---,0.00,VWS V14.01,2013-04-30 22:01:00,
2013-04-30 16:06:00,44.2,5.7,30.15,NW,308,7.6,8.1,20,0.00,,---,0.00,VWS V14.01,2013-04-30 22:06:00,
2013-04-30 16:11:00,44.4,8.9,30.15,WSW,252,5.4,8.1,23,0.00,,---,0.00,VWS V14.01,2013-04-30 22:11:00,
2013-04-30 16:16:00,44.6,8.1,30.15,NW,304,4.0,6.3,22,0.00,,---,0.00,VWS V14.01,2013-04-30 22:16:00,
2013-04-30 16:21:00,45.0,8.4,30.15,WNW,294,3.6,6.3,22,0.00,,---,0.00,VWS V14.01,2013-04-30 22:21:00,
2013-04-30 16:26:00,45.1,8.6,30.15,West,275,0.0,6.3,22,0.00,,---,0.00,VWS V14.01,2013-04-30 22:26:00,
2013-04-30 16:31:00,46.4,9.6,30.15,South,185,6.3,7.6,22,0.00,,---,0.00,VWS V14.01,2013-04-30 22:31:00,
2013-04-30 16:36:00,48.4,10.3,30.15,WSW,258,7.6,7.6,21,0.00,,---,0.00,VWS V14.01,2013-04-30 22:36:00,
2013-04-30 16:41:00,48.4,10.3,30.15,SW,214,5.4,8.3,21,0.00,,---,0.00,VWS V14.01,2013-04-30 22:41:00,
2013-04-30 16:46:00,48.0,11.0,30.18,SW,221,8.3,8.3,22,0.00,,---,0.00,VWS V14.01,2013-04-30 22:46:00,
2013-04-30 16:51:00,48.0,11.0,30.18,WSW,250,2.7,8.3,22,0.00,,---,0.00,VWS V14.01,2013-04-30 22:51:00,
2013-04-30 16:56:00,49.5,11.2,30.18,NW,307,4.0,8.7,21,0.00,,---,0.00,VWS V14.01,2013-04-30 22:56:00,
2013-04-30 17:01:00,51.3,12.7,30.18,South,179,2.7,5.4,21,0.00,,---,0.00,VWS V14.01,2013-04-30 23:01:00,
2013-04-30 17:06:00,50.2,11.8,30.18,North,1,3.6,8.3,21,0.00,,---,0.00,VWS V14.01,2013-04-30 23:06:00,
2013-04-30 17:11:00,50.5,12.1,30.18,NNE,21,3.6,8.3,21,0.00,,---,0.00,VWS V14.01,2013-04-30 23:11:00,
2013-04-30 17:16:00,47.1,10.2,30.18,NW,311,4.0,10.5,22,0.00,,---,0.00,VWS V14.01,2013-04-30 23:16:00,
2013-04-30 17:21:00,43.5,10.0,30.18,NNW,338,5.8,11.0,25,0.00,,---,0.00,VWS V14.01,2013-04-30 23:21:00,
2013-04-30 17:26:00,41.7,11.0,30.18,North,357,3.1,11.0,28,0.00,,---,0.00,VWS V14.01,2013-04-30 23:26:00,
2013-04-30 17:31:00,41.2,10.6,30.18,North,6,4.0,4.9,28,0.00,,---,0.00,VWS V14.01,2013-04-30 23:31:00,
2013-04-30 17:36:00,40.8,11.8,30.18,NNW,345,4.0,9.6,30,0.00,,---,0.00,VWS V14.01,2013-04-30 23:36:00,
2013-04-30 17:41:00,40.3,11.3,30.18,North,0,3.1,9.6,30,0.00,,---,0.00,VWS V14.01,2013-04-30 23:41:00,
2013-04-30 17:46:00,39.7,10.9,30.21,NW,321,5.8,8.3,30,0.00,,---,0.00,VWS V14.01,2013-04-30 23:46:00,
2013-04-30 17:51:00,38.5,11.2,30.21,South,185,2.7,11.9,32,0.00,,---,0.00,VWS V14.01,2013-04-30 23:51:00,
2013-04-30 17:56:00,38.5,11.9,30.21,North,349,0.0,11.9,33,0.00,,---,0.00,VWS V14.01,2013-04-30 23:56:00,
2013-04-30 18:01:00,40.6,13.8,30.21,NW,318,2.7,2.7,33,0.00,,---,0.00,VWS V14.01,2013-05-01 00:01:00,
2013-04-30 18:06:00,43.0,12.9,30.21,SSW,211,5.4,5.8,29,0.00,,---,0.00,VWS V14.01,2013-05-01 00:06:00,
2013-04-30 18:11:00,45.3,14.9,30.21,SSE,154,0.0,5.8,29,0.00,,---,0.00,VWS V14.01,2013-05-01 00:11:00,
2013-04-30 18:16:00,46.9,14.7,30.18,East,83,0.0,0.0,27,0.00,,---,0.00,VWS V14.01,2013-05-01 00:16:00,
2013-04-30 18:21:00,47.3,15.0,30.18,SSE,163,4.0,5.8,27,0.00,,---,0.00,VWS V14.01,2013-05-01 00:21:00,
2013-04-30 18:26:00,47.1,14.9,30.18,ESE,118,5.4,6.3,27,0.00,,---,0.00,VWS V14.01,2013-05-01 00:26:00,
2013-04-30 18:31:00,46.2,14.1,30.18,SE,130,3.6,6.3,27,0.00,,---,0.00,VWS V14.01,2013-05-01 00:31:00,
2013-04-30 18:36:00,46.9,14.7,30.18,SE,140,5.4,6.3,27,0.00,,---,0.00,VWS V14.01,2013-05-01 00:36:00,
2013-04-30 18:41:00,47.7,15.3,30.18,East,98,5.4,6.3,27,0.00,,---,0.00,VWS V14.01,2013-05-01 00:41:00,
2013-04-30 18:46:00,48.4,15.1,30.21,ENE,71,2.7,2.7,26,0.00,,---,0.00,VWS V14.01,2013-05-01 00:46:00,
2013-04-30 18:51:00,46.9,12.1,30.21,North,0,4.0,4.0,24,0.00,,---,0.00,VWS V14.01,2013-05-01 00:51:00,
2013-04-30 18:56:00,44.4,13.4,30.21,NNW,329,5.4,8.1,28,0.00,,---,0.00,VWS V14.01,2013-05-01 00:56:00,
2013-04-30 19:01:00,41.7,11.0,30.21,North,7,6.3,6.3,28,0.00,,---,0.00,VWS V14.01,2013-05-01 01:01:00,
2013-04-30 19:06:00,39.9,13.2,30.21,NNE,12,2.7,8.1,33,0.00,,---,0.00,VWS V14.01,2013-05-01 01:06:00,
2013-04-30 19:11:00,38.3,15.5,30.21,North,353,4.0,8.1,39,0.00,,---,0.00,VWS V14.01,2013-05-01 01:11:00,
2013-04-30 19:16:00,37.4,15.3,30.24,NNW,329,2.7,4.9,40,0.00,,---,0.00,VWS V14.01,2013-05-01 01:16:00,
2013-04-30 19:21:00,37.0,15.0,30.24,North,353,2.7,5.4,40,0.00,,---,0.00,VWS V14.01,2013-05-01 01:21:00,
2013-04-30 19:26:00,37.0,15.0,30.24,NW,324,2.7,5.4,40,0.00,,---,0.00,VWS V14.01,2013-05-01 01:26:00,
2013-04-30 19:31:00,37.0,15.0,30.24,NW,312,3.6,3.6,40,0.00,,---,0.00,VWS V14.01,2013-05-01 01:31:00,
2013-04-30 19:36:00,37.0,15.0,30.24,NNW,337,3.6,5.8,40,0.00,,---,0.00,VWS V14.01,2013-05-01 01:36:00,
2013-04-30 19:41:00,36.9,15.4,30.24,NW,322,3.1,5.8,41,0.00,,---,0.00,VWS V14.01,2013-05-01 01:41:00,
2013-04-30 19:46:00,36.1,15.8,30.24,NW,326,0.0,3.6,43,0.00,,---,0.00,VWS V14.01,2013-05-01 01:46:00,
2013-04-30 19:51:00,35.1,18.3,30.24,North,349,3.1,3.6,50,0.00,,---,0.00,VWS V14.01,2013-05-01 01:51:00,
2013-04-30 19:56:00,34.7,18.0,30.24,NNW,336,3.1,5.8,50,0.00,,---,0.00,VWS V14.01,2013-05-01 01:56:00,
2013-04-30 20:01:00,34.3,18.5,30.27,NNW,340,0.0,2.2,52,0.00,,---,0.00,VWS V14.01,2013-05-01 02:01:00,
2013-04-30 20:06:00,34.3,18.1,30.27,NNW,332,0.0,3.6,51,0.00,,---,0.00,VWS V14.01,2013-05-01 02:06:00,
2013-04-30 20:11:00,34.3,17.6,30.27,NW,307,2.2,3.6,50,0.00,,---,0.00,VWS V14.01,2013-05-01 02:11:00,
2013-04-30 20:16:00,34.2,17.0,30.27,NW,312,0.0,0.0,49,0.00,,---,0.00,VWS V14.01,2013-05-01 02:16:00,
2013-04-30 20:21:00,34.2,17.5,30.27,NW,310,3.6,4.9,50,0.00,,---,0.00,VWS V14.01,2013-05-01 02:21:00,
2013-04-30 20:26:00,34.3,17.6,30.27,WSW,244,2.7,5.4,50,0.00,,---,0.00,VWS V14.01,2013-05-01 02:26:00,
2013-04-30 20:31:00,34.3,17.6,30.27,WNW,298,2.7,5.4,50,0.00,,---,0.00,VWS V14.01,2013-05-01 02:31:00,
2013-04-30 20:36:00,34.3,17.2,30.27,WNW,299,0.0,5.4,49,0.00,,---,0.00,VWS V14.01,2013-05-01 02:36:00,
2013-04-30 20:41:00,34.2,17.0,30.27,SW,216,3.1,5.4,49,0.00,,---,0.00,VWS V14.01,2013-05-01 02:41:00,
2013-04-30 20:46:00,33.8,16.2,30.27,NW,308,0.0,0.0,48,0.00,,---,0.00,VWS V14.01,2013-05-01 02:46:00,
2013-04-30 20:51:00,33.4,15.9,30.27,WNW,292,0.0,4.0,48,0.00,,---,0.00,VWS V14.01,2013-05-01 02:51:00,
2013-04-30 20:56:00,33.3,15.2,30.27,WNW,299,0.0,4.0,47,0.00,,---,0.00,VWS V14.01,2013-05-01 02:56:00,
2013-04-30 21:01:00,32.7,14.7,30.27,WNW,299,0.0,0.0,47,0.00,,---,0.00,VWS V14.01,2013-05-01 03:01:00,
2013-04-30 21:06:00,32.2,14.2,30.27,WNW,299,0.0,0.0,47,0.00,,---,0.00,VWS V14.01,2013-05-01 03:06:00,
2013-04-30 21:11:00,31.8,13.9,30.27,WNW,299,0.0,0.0,47,0.00,,---,0.00,VWS V14.01,2013-05-01 03:11:00,
2013-04-30 21:16:00,31.8,13.9,30.30,WSW,248,0.0,0.0,47,0.00,,---,0.00,VWS V14.01,2013-05-01 03:16:00,
2013-04-30 21:21:00,32.0,14.1,30.30,WSW,248,0.0,0.0,47,0.00,,---,0.00,VWS V14.01,2013-05-01 03:21:00,
2013-04-30 21:26:00,32.0,14.1,30.30,WSW,248,0.0,0.0,47,0.00,,---,0.00,VWS V14.01,2013-05-01 03:26:00,
2013-04-30 21:31:00,32.0,14.6,30.30,North,350,0.0,0.0,48,0.00,,---,0.00,VWS V14.01,2013-05-01 03:31:00,
2013-04-30 21:36:00,32.4,15.8,30.30,NNE,21,3.1,4.0,50,0.00,,---,0.00,VWS V14.01,2013-05-01 03:36:00,
2013-04-30 21:41:00,32.2,16.5,30.30,North,4,7.6,7.6,52,0.00,,---,0.00,VWS V14.01,2013-05-01 03:41:00,
2013-04-30 21:46:00,32.4,18.0,30.30,North,357,3.6,5.4,55,0.00,,---,0.00,VWS V14.01,2013-05-01 03:46:00,
2013-04-30 21:51:00,31.8,18.3,30.30,North,3,2.7,7.6,57,0.00,,---,0.00,VWS V14.01,2013-05-01 03:51:00,
2013-04-30 21:56:00,31.5,18.4,30.30,NNW,329,4.5,7.6,58,0.00,,---,0.00,VWS V14.01,2013-05-01 03:56:00,
2013-04-30 22:01:00,31.6,19.0,30.33,North,357,2.7,3.6,59,0.00,,---,0.00,VWS V14.01,2013-05-01 04:01:00,
2013-04-30 22:06:00,31.5,18.8,30.33,NW,326,0.0,4.9,59,0.00,,---,0.00,VWS V14.01,2013-05-01 04:06:00,
2013-04-30 22:11:00,31.1,18.1,30.33,WNW,288,0.0,4.9,58,0.00,,---,0.00,VWS V14.01,2013-05-01 04:11:00,
2013-04-30 22:16:00,30.9,18.3,30.33,NW,323,0.0,4.0,59,0.00,,---,0.00,VWS V14.01,2013-05-01 04:16:00,
2013-04-30 22:21:00,30.6,18.3,30.33,North,357,0.0,4.0,60,0.00,,---,0.00,VWS V14.01,2013-05-01 04:21:00,
2013-04-30 22:26:00,30.2,18.0,30.33,NW,309,0.0,4.0,60,0.00,,---,0.00,VWS V14.01,2013-05-01 04:26:00,
2013-04-30 22:31:00,30.0,17.8,30.33,NW,312,0.0,0.0,60,0.00,,---,0.00,VWS V14.01,2013-05-01 04:31:00,
2013-04-30 22:36:00,29.8,17.7,30.33,WNW,299,2.2,3.6,60,0.00,,---,0.00,VWS V14.01,2013-05-01 04:36:00,
2013-04-30 22:41:00,29.7,17.9,30.33,West,275,0.0,3.6,61,0.00,,---,0.00,VWS V14.01,2013-05-01 04:41:00,
2013-04-30 22:46:00,29.7,18.2,30.33,NW,306,0.0,2.7,62,0.00,,---,0.00,VWS V14.01,2013-05-01 04:46:00,
2013-04-30 22:51:00,29.7,18.2,30.33,WNW,287,0.0,3.1,62,0.00,,---,0.00,VWS V14.01,2013-05-01 04:51:00,
2013-04-30 22:56:00,29.5,18.1,30.33,NNE,14,0.0,3.1,62,0.00,,---,0.00,VWS V14.01,2013-05-01 04:56:00,
2013-04-30 23:01:00,28.9,17.2,30.33,WSW,245,0.0,0.0,61,0.00,,---,0.00,VWS V14.01,2013-05-01 05:01:00,
2013-04-30 23:06:00,28.6,16.5,30.33,WSW,245,0.0,0.0,60,0.00,,---,0.00,VWS V14.01,2013-05-01 05:06:00,
2013-04-30 23:11:00,28.0,16.0,30.33,SSE,155,0.0,0.0,60,0.00,,---,0.00,VWS V14.01,2013-05-01 05:11:00,
2013-04-30 23:16:00,27.7,15.6,30.36,South,184,0.0,0.0,60,0.00,,---,0.00,VWS V14.01,2013-05-01 05:16:00,
2013-04-30 23:21:00,27.5,15.4,30.36,SSW,195,0.0,0.0,60,0.00,,---,0.00,VWS V14.01,2013-05-01 05:21:00,
2013-04-30 23:26:00,27.3,15.3,30.36,SSW,195,0.0,0.0,60,0.00,,---,0.00,VWS V14.01,2013-05-01 05:26:00,
2013-04-30 23:31:00,27.0,14.9,30.36,SSW,195,0.0,0.0,60,0.00,,---,0.00,VWS V14.01,2013-05-01 05:31:00,
2013-04-30 23:36:00,26.8,14.8,30.36,SSW,196,0.0,0.0,60,0.00,,---,0.00,VWS V14.01,2013-05-01 05:36:00,
2013-04-30 23:41:00,26.4,14.4,30.36,South,183,0.0,0.0,60,0.00,,---,0.00,VWS V14.01,2013-05-01 05:41:00,
2013-04-30 23:46:00,26.4,14.8,30.36,South,180,0.0,0.0,61,0.00,,---,0.00,VWS V14.01,2013-05-01 05:46:00,
2013-04-30 23:51:00,26.4,14.8,30.36,South,180,0.0,0.0,61,0.00,,---,0.00,VWS V14.01,2013-05-01 05:51:00,
2013-04-30 23:56:00,26.4,14.8,30.36,South,183,0.0,0.0,61,0.00,,---,0.00,VWS V14.01,2013-05-01 05:56:00,